Gilliam, Louisiana
Current Conditions -  °F | °C
As of 12:53 PM on Thursday 30 Oct 2014 (Local Time) from KDTN Reporting Station
Clear Clear  
Wind Chill: 70°   Ceiling: Unl
Heat Index: 70°   Visibility: 10mi
Dew Point: 42°   Wind: 8mph
Humidity: 36%   Direction: 200°SSW
Pressure: 30.16"   Gusts: NA
Location:  32.83°N, 93.85°W
Report Text: KDTN 301753Z 20007KT 10SM CLR 21/06 A3016 RMK AO2 SLP210 T02110056 10211 20061 58010
Loading
Personal Weather Stations






























Interactive Weather Map
Tropical Storm Tracking
New forecast layout! Learn more

10-Day Weather Forecast

Advertisements
Track Severe Weather on mobile